createdAt,value
2023-05-08T00:02:08.129Z,92.31
2023-05-08T00:04:36.031Z,92.80
2023-05-08T00:07:05.279Z,92.80
2023-05-08T00:09:32.944Z,92.93
2023-05-08T00:12:00.861Z,93.05
2023-05-08T00:14:28.642Z,93.12
2023-05-08T00:16:57.248Z,93.38
2023-05-08T00:19:25.036Z,93.52
2023-05-08T00:21:53.078Z,93.59
2023-05-08T00:24:22.244Z,93.65
2023-05-08T00:26:49.860Z,93.70
2023-05-08T00:29:17.766Z,93.73
2023-05-08T00:31:45.849Z,93.62
2023-05-08T00:34:14.258Z,93.71
2023-05-08T00:36:42.039Z,93.68
2023-05-08T00:39:09.880Z,93.68
2023-05-08T00:41:39.102Z,93.93
2023-05-08T00:44:06.728Z,93.84
2023-05-08T00:46:34.666Z,93.71
2023-05-08T00:49:02.679Z,93.40
2023-05-08T00:51:31.837Z,93.38
2023-05-08T00:54:00.674Z,93.74
2023-05-08T00:56:30.517Z,93.71
2023-05-08T00:59:00.905Z,94.25
2023-05-08T01:01:29.201Z,94.40
2023-05-08T01:03:57.430Z,94.56
2023-05-08T01:06:25.427Z,94.87
2023-05-08T01:08:53.221Z,94.97
2023-05-08T01:11:25.977Z,95.01
2023-05-08T01:14:05.858Z,95.07
2023-05-08T01:16:41.252Z,95.32
2023-05-08T01:19:28.792Z,95.49
2023-05-08T01:22:04.174Z,95.45
2023-05-08T01:24:49.214Z,95.63
2023-05-08T01:27:46.032Z,95.86
2023-05-08T01:30:36.594Z,95.91
2023-05-08T01:33:11.837Z,95.89
2023-05-08T01:35:46.254Z,95.89
2023-05-08T01:38:20.764Z,95.81
2023-05-08T01:40:54.688Z,95.82
2023-05-08T01:43:30.180Z,95.99
2023-05-08T01:46:00.233Z,95.77
2023-05-08T01:48:34.980Z,95.54
2023-05-08T01:51:07.482Z,95.40
2023-05-08T01:53:39.351Z,95.17
2023-05-08T01:56:13.091Z,95.25
2023-05-08T01:58:42.339Z,95.48
2023-05-08T02:01:10.571Z,95.42
2023-05-08T02:03:42.748Z,95.80
2023-05-08T02:06:13.989Z,95.57
2023-05-08T02:08:43.639Z,95.21
2023-05-08T02:11:13.513Z,95.40
2023-05-08T02:13:42.223Z,95.10
2023-05-08T02:16:12.553Z,95.31
2023-05-08T02:18:45.966Z,95.48
2023-05-08T02:21:15.857Z,95.57
2023-05-08T02:23:44.958Z,95.49
2023-05-08T02:26:14.915Z,95.59
2023-05-08T02:28:43.311Z,95.53
2023-05-08T02:31:13.139Z,95.86
2023-05-08T02:33:44.034Z,96.22
2023-05-08T02:36:14.150Z,96.48
2023-05-08T02:38:45.194Z,96.98
2023-05-08T02:41:14.611Z,96.66
2023-05-08T02:43:43.270Z,96.77
2023-05-08T02:46:15.741Z,96.70
2023-05-08T02:48:56.124Z,96.72
2023-05-08T02:51:28.165Z,96.78
2023-05-08T02:54:03.943Z,96.76
2023-05-08T02:56:37.252Z,97.02
2023-05-08T02:59:16.696Z,96.97
2023-05-08T03:01:50.408Z,96.67
2023-05-08T03:04:28.010Z,96.72
2023-05-08T03:06:58.124Z,96.72
2023-05-08T03:09:31.391Z,96.59
2023-05-08T03:12:05.791Z,96.45
2023-05-08T03:14:38.442Z,96.44
2023-05-08T03:17:08.677Z,96.37
2023-05-08T03:19:40.220Z,96.32
2023-05-08T03:22:10.066Z,96.45
2023-05-08T03:24:39.525Z,96.40
2023-05-08T03:27:09.923Z,96.44
2023-05-08T03:29:40.348Z,96.49
2023-05-08T03:32:10.362Z,96.64
2023-05-08T03:34:40.606Z,96.48
2023-05-08T03:37:08.698Z,96.69
2023-05-08T03:39:36.735Z,96.61
2023-05-08T03:42:04.823Z,96.60
2023-05-08T03:44:33.572Z,96.73
2023-05-08T03:47:01.718Z,96.81
2023-05-08T03:49:31.412Z,96.56
2023-05-08T03:52:00.729Z,96.32
2023-05-08T03:54:30.168Z,96.13
2023-05-08T03:56:58.941Z,96.20
2023-05-08T03:59:35.162Z,96.36
2023-05-08T04:02:15.067Z,96.34
2023-05-08T04:04:44.029Z,96.38
2023-05-08T04:07:23.536Z,96.45
2023-05-08T04:10:00.210Z,96.61
2023-05-08T04:12:41.507Z,96.94
2023-05-08T04:15:15.219Z,97.18
2023-05-08T04:17:48.928Z,97.40
2023-05-08T04:20:20.926Z,97.09
2023-05-08T04:22:53.710Z,96.99
2023-05-08T04:25:23.678Z,97.12
2023-05-08T04:27:53.140Z,97.32
2023-05-08T04:30:22.207Z,97.45
2023-05-08T04:32:50.870Z,97.55
2023-05-08T04:35:19.223Z,97.36
2023-05-08T04:37:48.274Z,97.48
2023-05-08T04:40:17.898Z,97.27
2023-05-08T04:42:47.713Z,97.30
2023-05-08T04:45:18.724Z,97.29
2023-05-08T04:47:46.609Z,97.34
2023-05-08T04:50:14.507Z,97.22
2023-05-08T04:52:43.057Z,97.09
2023-05-08T04:55:11.992Z,96.99
2023-05-08T04:57:41.761Z,96.91
2023-05-08T05:00:10.015Z,96.90
2023-05-08T05:02:41.035Z,96.89
2023-05-08T05:05:09.601Z,96.71
2023-05-08T05:07:37.671Z,96.06
2023-05-08T05:10:07.217Z,95.65
2023-05-08T05:12:35.224Z,94.94
2023-05-08T05:15:05.779Z,94.07
2023-05-08T05:17:35.728Z,93.10
2023-05-08T05:20:05.941Z,92.01
2023-05-08T05:22:34.132Z,90.08
2023-05-08T05:25:02.526Z,88.17
2023-05-08T05:27:30.439Z,86.18
2023-05-08T05:29:58.735Z,85.02
2023-05-08T05:32:29.014Z,84.32
2023-05-08T05:34:57.052Z,83.39
2023-05-08T05:37:24.934Z,83.56
2023-05-08T05:39:54.359Z,83.94
2023-05-08T05:42:22.343Z,83.91
2023-05-08T05:44:50.192Z,83.18
2023-05-08T05:47:18.244Z,83.98
2023-05-08T05:49:47.778Z,83.93
2023-05-08T05:52:16.650Z,84.13
2023-05-08T05:54:44.613Z,84.31
2023-05-08T05:57:13.128Z,84.97
2023-05-08T05:59:41.570Z,84.85
2023-05-08T06:02:14.348Z,84.82
2023-05-08T06:04:42.570Z,85.34
2023-05-08T06:07:11.727Z,85.72
2023-05-08T06:09:39.574Z,85.96
2023-05-08T06:12:08.230Z,86.24
2023-05-08T06:14:36.643Z,86.25
2023-05-08T06:17:04.688Z,86.32
2023-05-08T06:19:32.644Z,86.63
2023-05-08T06:22:00.552Z,86.41
2023-05-08T06:24:29.847Z,86.29
2023-05-08T06:26:57.634Z,86.65
2023-05-08T06:29:25.554Z,86.79
2023-05-08T06:31:53.376Z,87.26
2023-05-08T06:34:21.213Z,86.89
2023-05-08T06:36:49.033Z,87.17
2023-05-08T06:39:17.276Z,87.23
2023-05-08T06:41:48.306Z,87.27
2023-05-08T06:44:24.431Z,87.41
2023-05-08T06:46:52.311Z,86.59
2023-05-08T06:49:20.178Z,86.05
2023-05-08T06:51:47.959Z,85.21
2023-05-08T06:54:15.784Z,84.62
2023-05-08T06:56:43.629Z,84.59
2023-05-08T06:59:12.913Z,83.54
2023-05-08T07:01:41.661Z,83.68
2023-05-08T07:04:09.554Z,83.34
2023-05-08T07:06:37.386Z,83.27
2023-05-08T07:09:05.376Z,83.11
2023-05-08T07:11:33.188Z,82.98
2023-05-08T07:14:01.245Z,82.75
2023-05-08T07:16:30.435Z,82.24
2023-05-08T07:18:58.323Z,81.23
2023-05-08T07:21:26.261Z,80.04
2023-05-08T07:23:54.665Z,79.50
2023-05-08T07:26:22.645Z,79.94
2023-05-08T07:28:53.773Z,77.43
2023-05-08T07:31:21.843Z,76.46
2023-05-08T07:33:51.013Z,76.92
2023-05-08T07:36:18.991Z,76.50
2023-05-08T07:38:46.880Z,78.66
2023-05-08T07:41:14.758Z,79.06
2023-05-08T07:43:43.585Z,78.73
2023-05-08T07:46:17.573Z,79.37
2023-05-08T07:48:45.441Z,79.85
2023-05-08T07:51:15.014Z,81.14
2023-05-08T07:53:42.834Z,81.05
2023-05-08T07:56:10.675Z,81.20
2023-05-08T07:58:38.513Z,80.98
2023-05-08T08:01:06.653Z,80.61
2023-05-08T08:03:34.814Z,79.58
2023-05-08T08:06:02.870Z,78.63
2023-05-08T08:08:32.010Z,79.03
2023-05-08T08:11:01.240Z,78.27
2023-05-08T08:13:30.390Z,77.36
2023-05-08T08:15:58.364Z,75.98
2023-05-08T08:18:26.314Z,75.73
2023-05-08T08:20:54.161Z,74.27
2023-05-08T08:23:22.096Z,74.22
2023-05-08T08:25:53.431Z,72.97
2023-05-08T08:28:21.229Z,71.72
2023-05-08T08:30:49.208Z,69.06
2023-05-08T08:33:19.101Z,68.45
2023-05-08T08:35:47.131Z,65.57
2023-05-08T08:38:15.041Z,62.56
2023-05-08T08:40:43.484Z,63.74
2023-05-08T08:43:12.675Z,65.46
2023-05-08T08:45:40.671Z,65.55
2023-05-08T08:48:12.433Z,68.80
2023-05-08T08:50:44.430Z,69.76
2023-05-08T08:53:18.084Z,71.82
2023-05-08T08:55:49.700Z,73.23
2023-05-08T08:58:25.822Z,73.11
2023-05-08T09:00:55.411Z,73.42
2023-05-08T09:03:23.301Z,72.68
2023-05-08T09:05:52.024Z,72.50
2023-05-08T09:08:20.324Z,71.27
2023-05-08T09:10:48.387Z,71.27
2023-05-08T09:13:17.470Z,70.22
2023-05-08T09:15:49.156Z,68.35
2023-05-08T09:18:17.533Z,67.72
2023-05-08T09:20:45.742Z,67.69
2023-05-08T09:23:17.499Z,69.10
2023-05-08T09:25:46.342Z,68.40
2023-05-08T09:28:18.747Z,63.95
2023-05-08T09:30:52.780Z,62.79
2023-05-08T09:33:21.510Z,63.60
2023-05-08T09:35:50.092Z,63.80
2023-05-08T09:38:38.145Z,63.43
2023-05-08T09:41:11.061Z,61.25
2023-05-08T09:43:39.404Z,61.36
2023-05-08T09:46:25.002Z,62.55
2023-05-08T09:48:54.250Z,60.56
2023-05-08T09:51:22.480Z,58.60
2023-05-08T09:53:53.133Z,56.58
2023-05-08T09:56:36.804Z,54.55
2023-05-08T09:59:06.642Z,55.29
2023-05-08T10:01:39.653Z,56.34
2023-05-08T10:04:07.643Z,57.40
2023-05-08T10:06:36.509Z,59.49
2023-05-08T10:09:08.087Z,60.32
2023-05-08T10:11:36.010Z,61.84
2023-05-08T10:14:03.981Z,61.51
2023-05-08T10:16:33.242Z,61.98
2023-05-08T10:19:06.065Z,62.21
2023-05-08T10:21:37.547Z,62.13
2023-05-08T10:24:11.636Z,63.22
2023-05-08T10:26:50.728Z,63.86
2023-05-08T10:29:35.249Z,65.65
2023-05-08T10:32:04.441Z,65.93
2023-05-08T10:34:35.474Z,66.34
2023-05-08T10:37:03.582Z,66.73
2023-05-08T10:39:32.892Z,68.24
2023-05-08T10:42:00.904Z,69.60
2023-05-08T10:44:30.614Z,70.49
2023-05-08T10:47:06.177Z,71.31
2023-05-08T10:49:43.764Z,72.62
2023-05-08T10:52:18.521Z,71.91
2023-05-08T10:55:07.761Z,71.56
2023-05-08T10:57:35.628Z,72.44
2023-05-08T11:00:04.021Z,72.60
2023-05-08T11:02:36.790Z,72.49
2023-05-08T11:05:17.789Z,73.25
2023-05-08T11:07:55.675Z,73.11
2023-05-08T11:10:30.563Z,72.54
2023-05-08T11:12:59.797Z,70.66
2023-05-08T11:15:37.770Z,71.39
2023-05-08T11:18:07.059Z,70.32
2023-05-08T11:20:44.114Z,69.53
2023-05-08T11:23:25.577Z,70.28
2023-05-08T11:26:01.316Z,68.27
2023-05-08T11:28:29.661Z,66.43
2023-05-08T11:30:57.589Z,63.00
2023-05-08T11:33:30.769Z,60.06
2023-05-08T11:36:01.334Z,60.58
2023-05-08T11:38:35.972Z,58.63
2023-05-08T11:41:06.800Z,59.51
2023-05-08T11:44:15.278Z,60.80
2023-05-08T11:46:44.392Z,59.02
2023-05-08T11:49:14.364Z,57.92
2023-05-08T11:51:47.400Z,58.53
2023-05-08T11:54:20.067Z,59.86
2023-05-08T11:56:48.675Z,59.89
2023-05-08T11:59:16.982Z,59.71
2023-05-08T12:01:53.501Z,59.43
2023-05-08T12:04:28.291Z,57.93
2023-05-08T12:07:00.114Z,55.12
2023-05-08T12:09:28.394Z,52.98
2023-05-08T12:11:59.002Z,51.83
2023-05-08T12:14:27.014Z,53.53
2023-05-08T12:16:54.885Z,54.43
2023-05-08T12:19:22.818Z,53.74
2023-05-08T12:21:51.326Z,51.47
2023-05-08T12:24:23.171Z,51.55
2023-05-08T12:26:55.246Z,53.24
2023-05-08T12:29:24.242Z,55.49
2023-05-08T12:31:54.717Z,54.57
2023-05-08T12:34:22.802Z,54.90
2023-05-08T12:36:51.363Z,55.12
2023-05-08T12:39:20.818Z,54.12
2023-05-08T12:41:49.632Z,55.66
2023-05-08T12:44:21.468Z,56.62
2023-05-08T12:46:52.155Z,56.50
2023-05-08T12:49:31.068Z,66.12
2023-05-08T12:52:07.069Z,66.54
2023-05-08T12:54:38.142Z,69.63
2023-05-08T12:57:13.363Z,72.18
2023-05-08T12:59:41.887Z,73.66
2023-05-08T13:02:14.369Z,73.76
2023-05-08T13:04:42.377Z,72.91
2023-05-08T13:07:10.443Z,73.20
2023-05-08T13:09:40.463Z,74.08
2023-05-08T13:12:08.761Z,74.24
2023-05-08T13:14:36.648Z,74.11
2023-05-08T13:17:04.551Z,73.77
2023-05-08T13:19:32.416Z,74.10
2023-05-08T13:22:00.308Z,74.22
2023-05-08T13:24:28.157Z,74.20
2023-05-08T13:26:57.332Z,72.84
2023-05-08T13:29:25.256Z,73.69
2023-05-08T13:31:53.168Z,73.23
2023-05-08T13:34:21.082Z,73.01
2023-05-08T13:36:49.003Z,72.35
2023-05-08T13:39:16.890Z,72.30
2023-05-08T13:41:44.737Z,72.58
2023-05-08T13:44:13.975Z,72.81
2023-05-08T13:46:41.871Z,71.71
2023-05-08T13:49:10.517Z,71.18
2023-05-08T13:51:38.491Z,72.13
2023-05-08T13:54:06.755Z,72.43
2023-05-08T13:56:35.130Z,73.89
2023-05-08T13:59:02.978Z,73.07
2023-05-08T14:01:32.257Z,71.72
2023-05-08T14:04:00.171Z,71.04
2023-05-08T14:06:28.160Z,71.19
2023-05-08T14:08:57.163Z,70.86
2023-05-08T14:11:25.458Z,71.12
2023-05-08T14:13:53.328Z,71.89
2023-05-08T14:16:21.317Z,72.66
2023-05-08T14:18:50.650Z,71.89
2023-05-08T14:21:18.624Z,72.04
2023-05-08T14:23:46.615Z,72.34
2023-05-08T14:26:14.621Z,71.41
2023-05-08T14:28:42.626Z,71.37
2023-05-08T14:31:10.578Z,72.26
2023-05-08T14:33:38.493Z,72.17
2023-05-08T14:36:08.680Z,72.56
2023-05-08T14:38:36.693Z,73.00
2023-05-08T14:41:05.019Z,72.90
2023-05-08T14:43:33.063Z,72.53
2023-05-08T14:46:01.760Z,72.16
2023-05-08T14:48:29.729Z,71.75
2023-05-08T14:50:57.737Z,71.83
2023-05-08T14:53:27.217Z,71.70
2023-05-08T14:55:55.608Z,71.49
2023-05-08T14:58:23.715Z,73.28
2023-05-08T15:00:51.621Z,73.18
2023-05-08T15:03:19.667Z,72.81
2023-05-08T15:05:48.400Z,71.35
2023-05-08T15:08:16.668Z,71.12
2023-05-08T15:10:45.919Z,72.98
2023-05-08T15:13:13.930Z,73.30
2023-05-08T15:15:42.096Z,73.14
2023-05-08T15:18:09.985Z,73.09
2023-05-08T15:20:37.922Z,73.85
2023-05-08T15:23:06.682Z,73.85
2023-05-08T15:25:34.581Z,74.08
2023-05-08T15:28:04.002Z,73.82
2023-05-08T15:30:31.939Z,73.62
2023-05-08T15:32:59.966Z,73.61
2023-05-08T15:35:27.917Z,73.66
2023-05-08T15:37:55.762Z,72.65
2023-05-08T15:40:23.920Z,72.43
2023-05-08T15:42:51.748Z,72.39
2023-05-08T15:45:21.211Z,72.67
2023-05-08T15:47:49.119Z,70.98
2023-05-08T15:50:17.046Z,71.86
2023-05-08T15:52:44.979Z,71.78
2023-05-08T15:55:12.963Z,72.00
2023-05-08T15:57:40.989Z,72.20
2023-05-08T16:00:10.172Z,73.33
2023-05-08T16:02:39.524Z,73.22
2023-05-08T16:05:08.010Z,73.61
2023-05-08T16:07:36.030Z,73.10
2023-05-08T16:10:05.511Z,72.73
2023-05-08T16:12:35.245Z,73.63
2023-05-08T16:15:03.198Z,73.92
2023-05-08T16:17:31.088Z,74.55
2023-05-08T16:20:01.697Z,74.13
2023-05-08T16:22:29.698Z,74.36
2023-05-08T16:24:57.626Z,74.49
2023-05-08T16:27:25.605Z,73.99
2023-05-08T16:29:53.450Z,74.52
2023-05-08T16:32:21.347Z,75.42
2023-05-08T16:34:49.270Z,75.90
2023-05-08T16:37:18.532Z,76.20
2023-05-08T16:39:46.395Z,75.17
2023-05-08T16:42:14.533Z,75.28
2023-05-08T16:44:42.431Z,75.11
2023-05-08T16:47:10.450Z,75.13
2023-05-08T16:49:38.480Z,75.28
2023-05-08T16:52:06.373Z,75.57
2023-05-08T16:54:35.583Z,75.22
2023-05-08T16:57:03.734Z,75.02
2023-05-08T16:59:32.176Z,74.97
2023-05-08T17:02:00.117Z,74.74
2023-05-08T17:04:29.679Z,74.71
2023-05-08T17:06:59.951Z,75.81
2023-05-08T17:09:27.848Z,75.82
2023-05-08T17:11:58.175Z,76.17
2023-05-08T17:14:26.176Z,76.42
2023-05-08T17:16:54.086Z,76.76
2023-05-08T17:19:21.983Z,77.22
2023-05-08T17:21:49.884Z,77.61
2023-05-08T17:24:19.596Z,77.61
2023-05-08T17:26:47.500Z,77.73
2023-05-08T17:29:16.761Z,77.81
2023-05-08T17:31:44.772Z,77.79
2023-05-08T17:34:12.653Z,77.66
2023-05-08T17:36:40.594Z,77.96
2023-05-08T17:39:09.666Z,78.20
2023-05-08T17:41:37.393Z,78.11
2023-05-08T17:44:05.576Z,78.51
2023-05-08T17:46:34.834Z,78.38
2023-05-08T17:49:02.766Z,78.67
2023-05-08T17:51:31.072Z,78.33
2023-05-08T17:53:58.925Z,78.55
2023-05-08T17:56:27.006Z,78.90
2023-05-08T17:58:55.572Z,79.03
2023-05-08T18:01:24.762Z,79.38
2023-05-08T18:03:55.043Z,79.73
2023-05-08T18:06:22.984Z,80.02
2023-05-08T18:08:50.869Z,79.78
2023-05-08T18:11:19.913Z,79.88
2023-05-08T18:13:48.538Z,79.89
2023-05-08T18:16:18.246Z,79.94
2023-05-08T18:18:46.511Z,79.74
2023-05-08T18:21:15.788Z,79.81
2023-05-08T18:23:43.737Z,79.92
2023-05-08T18:26:15.362Z,79.91
2023-05-08T18:28:43.490Z,80.00
2023-05-08T18:31:11.730Z,80.30
2023-05-08T18:33:39.801Z,80.10
2023-05-08T18:36:08.020Z,80.49
2023-05-08T18:38:37.402Z,79.96
2023-05-08T18:41:06.177Z,80.05
2023-05-08T18:43:34.354Z,80.20
2023-05-08T18:46:08.730Z,80.46
2023-05-08T18:48:36.702Z,80.50
2023-05-08T18:51:04.652Z,80.40
2023-05-08T18:53:33.168Z,80.48
2023-05-08T18:56:03.496Z,80.67
2023-05-08T18:58:31.626Z,81.00
2023-05-08T19:01:00.626Z,81.40
2023-05-08T19:03:28.451Z,81.87
2023-05-08T19:05:56.745Z,82.02
2023-05-08T19:08:24.985Z,82.47
2023-05-08T19:10:53.463Z,82.56
2023-05-08T19:13:22.846Z,82.83
2023-05-08T19:15:50.831Z,82.77
2023-05-08T19:18:18.756Z,82.51
2023-05-08T19:20:46.664Z,83.11
2023-05-08T19:23:14.573Z,82.70
2023-05-08T19:25:42.443Z,82.60
2023-05-08T19:28:10.358Z,82.92
2023-05-08T19:30:39.841Z,83.13
2023-05-08T19:33:08.003Z,83.43
2023-05-08T19:35:36.132Z,83.84
2023-05-08T19:38:04.106Z,83.98
2023-05-08T19:40:33.102Z,84.07
2023-05-08T19:43:04.208Z,84.27
2023-05-08T19:45:32.080Z,84.14
2023-05-08T19:48:01.313Z,84.20
2023-05-08T19:50:29.290Z,84.40
2023-05-08T19:52:57.224Z,84.36
2023-05-08T19:55:25.302Z,84.77
2023-05-08T19:57:53.212Z,84.80
2023-05-08T20:00:21.155Z,84.66
2023-05-08T20:02:49.126Z,84.95
2023-05-08T20:05:22.885Z,84.70
2023-05-08T20:07:51.356Z,84.47
2023-05-08T20:10:19.301Z,84.45
2023-05-08T20:12:47.240Z,84.49
2023-05-08T20:15:15.405Z,84.43
2023-05-08T20:17:43.523Z,84.24
2023-05-08T20:20:12.960Z,84.33
2023-05-08T20:22:42.495Z,84.22
2023-05-08T20:25:10.564Z,84.14
2023-05-08T20:27:38.401Z,83.96
2023-05-08T20:30:07.506Z,83.85
2023-05-08T20:32:35.252Z,84.13
2023-05-08T20:35:03.260Z,84.15
2023-05-08T20:37:31.245Z,83.87
2023-05-08T20:40:01.797Z,83.83
2023-05-08T20:42:30.549Z,84.03
2023-05-08T20:44:58.378Z,84.42
2023-05-08T20:47:26.314Z,84.15
2023-05-08T20:49:54.133Z,83.49
2023-05-08T20:52:22.083Z,83.72
2023-05-08T20:54:50.438Z,83.61
2023-05-08T20:57:19.644Z,83.52
2023-05-08T20:59:47.996Z,83.69
2023-05-08T21:02:15.893Z,83.58
2023-05-08T21:04:43.779Z,83.71
2023-05-08T21:07:11.722Z,83.72
2023-05-08T21:09:39.551Z,83.93
2023-05-08T21:12:07.753Z,84.20
2023-05-08T21:14:37.637Z,84.17
2023-05-08T21:17:05.514Z,84.10
2023-05-08T21:19:33.778Z,84.33
2023-05-08T21:22:01.607Z,84.42
2023-05-08T21:24:29.614Z,84.21
2023-05-08T21:26:59.488Z,84.18
2023-05-08T21:29:27.402Z,84.22
2023-05-08T21:31:56.558Z,84.19
2023-05-08T21:34:24.229Z,84.26
2023-05-08T21:36:52.053Z,84.02
2023-05-08T21:39:19.970Z,84.12
2023-05-08T21:41:48.019Z,84.25
2023-05-08T21:44:16.126Z,84.31
2023-05-08T21:46:44.042Z,84.67
2023-05-08T21:49:13.316Z,84.41
2023-05-08T21:51:40.961Z,84.59
2023-05-08T21:54:10.107Z,84.90
2023-05-08T21:56:43.070Z,85.42
2023-05-08T21:59:13.962Z,85.92
2023-05-08T22:01:44.419Z,86.47
2023-05-08T22:04:13.748Z,86.74
2023-05-08T22:06:43.158Z,87.40
2023-05-08T22:09:11.149Z,87.51
2023-05-08T22:11:38.982Z,88.33
2023-05-08T22:14:06.872Z,89.06
2023-05-08T22:16:34.814Z,89.96
2023-05-08T22:19:02.630Z,90.13
2023-05-08T22:21:32.162Z,90.85
2023-05-08T22:24:00.058Z,91.30
2023-05-08T22:26:28.754Z,91.47
2023-05-08T22:28:56.620Z,92.17
2023-05-08T22:31:24.486Z,91.98
2023-05-08T22:33:52.376Z,92.00
2023-05-08T22:36:22.649Z,92.03
2023-05-08T22:38:52.176Z,92.56
2023-05-08T22:41:20.071Z,92.43
2023-05-08T22:43:47.900Z,92.29
2023-05-08T22:46:15.980Z,92.59
2023-05-08T22:48:44.257Z,92.49
2023-05-08T22:51:12.520Z,93.73
2023-05-08T22:53:40.353Z,91.29
2023-05-08T22:56:09.806Z,89.41
2023-05-08T22:58:37.586Z,88.72
2023-05-08T23:01:06.040Z,88.11
2023-05-08T23:03:33.912Z,87.94
2023-05-08T23:06:01.742Z,87.42
2023-05-08T23:08:29.621Z,86.26
2023-05-08T23:10:57.440Z,87.14
2023-05-08T23:13:26.720Z,86.30
2023-05-08T23:15:54.658Z,85.51
2023-05-08T23:18:22.489Z,85.89
2023-05-08T23:20:50.310Z,85.47
2023-05-08T23:23:18.120Z,85.03
2023-05-08T23:25:45.914Z,84.85
2023-05-08T23:28:13.751Z,84.98
2023-05-08T23:30:42.963Z,85.80
2023-05-08T23:33:10.595Z,84.97
2023-05-08T23:35:38.441Z,84.57
2023-05-08T23:38:06.258Z,83.61
2023-05-08T23:40:34.067Z,83.37
2023-05-08T23:43:01.880Z,83.45
2023-05-08T23:45:29.773Z,83.63
2023-05-08T23:47:59.601Z,83.17
2023-05-08T23:50:27.400Z,83.29
2023-05-08T23:52:55.310Z,83.73
2023-05-08T23:55:23.167Z,83.47
2023-05-08T23:57:51.860Z,83.66
